Time;durP1;ratioP1;P1;durP2;ratioP2;P2;SDS_P1;SDS_P2;PMS_P1;PMS_P2;Temp;Humidity;BMP_temperature;BMP_pressure;BME280_temperature;BME280_humidity;BME280_pressure;Samples;Min_cycle;Max_cycle;Signal;HPM_P1;HPM_P2
2022/05/21 00:00:54;;;;;;;9.25;3.90;;;9.90;99.90;;;;;;4977521;28;20133;-67
2022/05/21 00:03:20;;;;;;;10.52;5.00;;;9.90;99.90;;;;;;4972149;28;20589;-66
2022/05/21 00:05:46;;;;;;;11.63;4.15;;;9.90;99.90;;;;;;4978246;28;20054;-66
2022/05/21 00:08:13;;;;;;;13.13;5.22;;;9.90;99.90;;;;;;4977552;28;20058;-66
2022/05/21 00:10:40;;;;;;;13.07;5.00;;;10.00;99.90;;;;;;4975890;28;20034;-66
2022/05/21 00:13:06;;;;;;;17.38;5.50;;;10.00;99.90;;;;;;4978068;28;20054;-66
2022/05/21 00:15:34;;;;;;;14.00;5.72;;;10.20;99.90;;;;;;4978978;28;20415;-66
2022/05/21 00:17:59;;;;;;;18.83;6.10;;;10.00;99.90;;;;;;4989997;28;20507;-67
2022/05/21 00:23:24;;;;;;;12.98;6.20;;;10.00;99.90;;;;;;4977353;28;20082;-66
2022/05/21 00:25:58;;;;;;;16.05;6.38;;;10.10;99.90;;;;;;4975683;28;20046;-66
2022/05/21 00:28:24;;;;;;;17.60;7.07;;;10.10;99.90;;;;;;4974984;28;20101;-66
2022/05/21 00:30:50;;;;;;;18.75;6.82;;;10.10;99.90;;;;;;4976395;28;20050;-66
2022/05/21 00:33:16;;;;;;;13.77;6.80;;;10.10;99.90;;;;;;4959217;28;20223;-66
2022/05/21 00:35:42;;;;;;;21.38;7.75;;;10.10;99.90;;;;;;4976942;28;20049;-66
2022/05/21 00:38:09;;;;;;;14.02;7.22;;;10.20;99.90;;;;;;4961295;28;20499;-66
2022/05/21 00:40:36;;;;;;;22.63;8.30;;;10.20;99.90;;;;;;4980680;28;20053;-66
2022/05/21 00:43:03;;;;;;;22.88;9.82;;;10.20;99.90;;;;;;5014069;28;20497;-65
2022/05/21 00:45:30;;;;;;;20.52;9.70;;;10.30;99.90;;;;;;4997245;28;20474;-66
2022/05/21 00:47:55;;;;;;;23.17;10.52;;;10.30;99.90;;;;;;4975178;28;20132;-67
2022/05/21 00:50:26;;;;;;;19.90;10.05;;;10.40;99.90;;;;;;4982676;28;20054;-67
2022/05/21 00:52:53;;;;;;;28.63;10.23;;;10.40;99.90;;;;;;4984245;28;20042;-66
2022/05/21 00:55:32;;;;;;;25.58;9.55;;;10.50;99.90;;;;;;4986659;28;20030;-66
2022/05/21 01:00:48;;;;;;;20.93;9.57;;;10.50;99.90;;;;;;4976494;28;20050;-65
2022/05/21 01:03:16;;;;;;;22.92;9.65;;;10.50;99.90;;;;;;4982670;28;20050;-66
2022/05/21 01:05:45;;;;;;;16.92;9.63;;;10.50;99.90;;;;;;4985702;28;20051;-65
2022/05/21 01:08:11;;;;;;;18.10;9.43;;;10.50;99.90;;;;;;4986179;28;20502;-65
2022/05/21 01:10:41;;;;;;;30.08;9.82;;;10.50;99.90;;;;;;4986533;28;20092;-65
2022/05/21 01:13:11;;;;;;;22.73;11.57;;;10.50;99.90;;;;;;4996912;28;20054;-65
2022/05/21 01:15:42;;;;;;;22.63;11.35;;;10.60;99.90;;;;;;4985599;28;20304;-65
2022/05/21 01:18:08;;;;;;;22.65;11.48;;;10.50;99.90;;;;;;4987253;28;20069;-65
2022/05/21 01:20:44;;;;;;;33.22;13.70;;;10.50;99.90;;;;;;4984899;28;20086;-65
2022/05/21 01:23:11;;;;;;;27.05;12.07;;;10.50;99.90;;;;;;4980707;28;20465;-66
2022/05/21 01:25:38;;;;;;;33.40;14.43;;;10.90;99.90;;;;;;4984319;28;20054;-66
2022/05/21 01:28:08;;;;;;;26.60;13.32;;;10.60;99.90;;;;;;4968275;28;20081;-65
2022/05/21 01:30:40;;;;;;;26.83;14.77;;;10.60;99.90;;;;;;4984456;28;20050;-65
2022/05/21 01:33:11;;;;;;;27.13;14.73;;;10.60;99.90;;;;;;4987694;28;20038;-66
2022/05/21 01:35:39;;;;;;;27.73;15.45;;;10.70;99.90;;;;;;4984582;28;20061;-66
2022/05/21 01:38:05;;;;;;;30.75;15.30;;;10.60;99.90;;;;;;4983280;28;20122;-64
2022/05/21 01:40:31;;;;;;;29.23;14.45;;;10.80;99.90;;;;;;4982470;28;20467;-65
2022/05/21 01:45:42;;;;;;;33.22;16.70;;;10.80;99.90;;;;;;4982730;28;20073;-66
2022/05/21 01:48:09;;;;;;;26.95;15.73;;;10.80;99.90;;;;;;4991593;28;20077;-66
2022/05/21 01:50:36;;;;;;;32.30;17.38;;;11.00;99.90;;;;;;4969979;28;20058;-66
2022/05/21 01:53:02;;;;;;;28.23;15.35;;;11.00;99.90;;;;;;4978922;28;20376;-66
2022/05/21 01:55:27;;;;;;;25.70;16.17;;;11.10;99.90;;;;;;4979801;28;20049;-66
2022/05/21 01:57:53;;;;;;;32.38;16.92;;;11.00;99.90;;;;;;4980608;28;20070;-66
2022/05/21 02:00:20;;;;;;;29.67;16.55;;;11.10;99.90;;;;;;4982204;28;20042;-66
2022/05/21 02:02:45;;;;;;;29.05;17.73;;;11.10;99.90;;;;;;4981798;28;20435;-66
2022/05/21 02:05:11;;;;;;;31.45;17.58;;;11.20;99.90;;;;;;4980082;28;20068;-66
2022/05/21 02:07:37;;;;;;;30.23;18.25;;;11.20;99.90;;;;;;4979014;28;20039;-67
2022/05/21 02:10:08;;;;;;;31.98;17.65;;;11.30;99.90;;;;;;4977810;28;20035;-66
2022/05/21 02:12:33;;;;;;;30.90;17.27;;;11.40;99.90;;;;;;4978044;28;20049;-66
2022/05/21 02:14:59;;;;;;;30.92;17.42;;;11.40;99.90;;;;;;4997464;28;20039;-67
2022/05/21 02:17:25;;;;;;;33.00;17.83;;;11.50;99.90;;;;;;4979038;28;20463;-66
2022/05/21 02:19:51;;;;;;;37.00;17.48;;;11.50;99.90;;;;;;4974959;28;20054;-66
2022/05/21 02:22:16;;;;;;;33.45;16.13;;;11.50;99.90;;;;;;4975741;28;20100;-66
2022/05/21 02:24:42;;;;;;;40.85;17.85;;;11.60;99.90;;;;;;4975403;28;20038;-66
2022/05/21 02:27:13;;;;;;;32.90;14.30;;;11.70;99.90;;;;;;4974403;28;20071;-66
2022/05/21 02:29:40;;;;;;;31.07;13.27;;;11.70;99.90;;;;;;4990389;28;20045;-66
2022/05/21 02:32:07;;;;;;;31.55;14.00;;;11.80;99.90;;;;;;4974741;28;20310;-66
2022/05/21 02:34:33;;;;;;;36.78;13.82;;;11.90;99.90;;;;;;4974057;28;20061;-66
2022/05/21 02:39:43;;;;;;;28.17;10.93;;;12.00;99.90;;;;;;4975506;28;20046;-66
2022/05/21 02:42:43;;;;;;;34.22;10.88;;;12.00;99.90;;;;;;4989862;28;20035;-66
2022/05/21 02:44:55;;;;;;;30.58;10.27;;;12.10;99.90;;;;;;4971076;28;20129;-66
2022/05/21 02:47:22;;;;;;;33.15;10.48;;;12.10;99.90;;;;;;4972027;28;20077;-66
2022/05/21 02:49:47;;;;;;;29.60;10.55;;;12.10;99.90;;;;;;4980411;28;20510;-66
2022/05/21 02:52:14;;;;;;;33.78;11.52;;;12.20;99.90;;;;;;4973447;28;20038;-66
2022/05/21 02:54:40;;;;;;;26.95;11.35;;;12.10;99.90;;;;;;4993755;28;20133;-66
2022/05/21 02:57:09;;;;;;;30.05;9.23;;;12.20;99.90;;;;;;4978896;28;20120;-66
2022/05/21 02:59:35;;;;;;;28.48;8.77;;;12.20;99.90;;;;;;4973721;28;20047;-66
2022/05/21 03:02:01;;;;;;;32.53;8.63;;;12.20;99.90;;;;;;5003356;28;20042;-66
2022/05/21 03:04:28;;;;;;;32.38;8.80;;;12.30;99.90;;;;;;4971956;28;20082;-66
2022/05/21 03:06:54;;;;;;;34.42;8.77;;;12.30;99.90;;;;;;4973296;28;20045;-66
2022/05/21 03:12:04;;;;;;;34.85;7.75;;;12.30;99.90;;;;;;5009371;28;20554;-66
2022/05/21 03:14:30;;;;;;;30.02;7.05;;;12.30;99.90;;;;;;4981435;28;20496;-65
2022/05/21 03:16:59;;;;;;;31.00;7.45;;;12.30;99.90;;;;;;4987055;28;20057;-66
2022/05/21 03:19:30;;;;;;;34.30;7.10;;;12.30;99.90;;;;;;4985788;28;20046;-65
2022/05/21 03:21:56;;;;;;;26.17;6.72;;;12.30;99.90;;;;;;4983915;28;20057;-66
2022/05/21 03:24:22;;;;;;;26.00;7.05;;;12.30;99.90;;;;;;4986126;28;20038;-66
2022/05/21 03:26:48;;;;;;;30.75;6.28;;;12.30;99.90;;;;;;4989016;28;20047;-66
2022/05/21 03:29:14;;;;;;;25.15;6.45;;;12.40;99.90;;;;;;4971065;28;20096;-66
2022/05/21 03:31:39;;;;;;;21.40;5.97;;;12.40;99.90;;;;;;4988331;28;20035;-65
2022/05/21 03:34:05;;;;;;;27.00;6.20;;;12.40;99.90;;;;;;4988088;28;20050;-65
2022/05/21 03:36:32;;;;;;;38.03;6.70;;;12.40;99.90;;;;;;5021138;28;20435;-65
2022/05/21 03:38:58;;;;;;;29.60;6.43;;;12.40;99.90;;;;;;5020226;28;20046;-65
2022/05/21 03:41:25;;;;;;;24.38;6.18;;;12.50;99.90;;;;;;4987233;28;20411;-66
2022/05/21 03:43:52;;;;;;;25.13;5.82;;;12.40;99.90;;;;;;4988095;28;20042;-66
2022/05/21 03:46:18;;;;;;;32.22;7.30;;;12.40;99.90;;;;;;5003556;28;20049;-65
2022/05/21 03:48:44;;;;;;;24.83;5.40;;;12.50;99.90;;;;;;4988079;28;20180;-65
2022/05/21 03:51:11;;;;;;;30.73;5.32;;;12.50;99.90;;;;;;4989606;28;20120;-65
2022/05/21 03:53:36;;;;;;;26.73;6.50;;;12.50;99.90;;;;;;4980995;28;20515;-65
2022/05/21 03:56:03;;;;;;;22.00;4.88;;;12.50;99.90;;;;;;4984936;28;20046;-65
2022/05/21 03:58:30;;;;;;;24.23;5.35;;;12.50;99.90;;;;;;5007264;28;20045;-65
2022/05/21 04:00:55;;;;;;;27.45;5.55;;;12.50;99.90;;;;;;5009711;28;20042;-65
2022/05/21 04:03:21;;;;;;;30.75;7.00;;;12.50;99.90;;;;;;5023465;28;20104;-65
2022/05/21 04:05:47;;;;;;;22.42;5.28;;;12.70;99.90;;;;;;4991996;28;20190;-66
2022/05/21 04:08:15;;;;;;;20.83;5.43;;;12.60;99.90;;;;;;4993127;28;20069;-66
2022/05/21 04:10:41;;;;;;;30.60;5.53;;;12.60;99.90;;;;;;5017816;28;20440;-66
2022/05/21 04:13:07;;;;;;;21.60;4.93;;;12.60;99.90;;;;;;4985629;28;20073;-66
2022/05/21 04:15:33;;;;;;;21.02;4.63;;;12.60;99.90;;;;;;4983621;28;20735;-65
2022/05/21 04:18:00;;;;;;;25.30;5.53;;;12.60;99.90;;;;;;4966193;28;20418;-66
2022/05/21 04:20:26;;;;;;;26.17;4.53;;;12.60;99.90;;;;;;4985626;28;20046;-66
2022/05/21 04:22:52;;;;;;;27.10;4.55;;;12.60;99.90;;;;;;4985843;28;20061;-66
2022/05/21 04:25:19;;;;;;;15.55;3.75;;;12.60;99.90;;;;;;4988702;28;20547;-65
2022/05/21 04:27:45;;;;;;;21.85;4.28;;;12.60;99.90;;;;;;4986713;28;21218;-66
2022/05/21 04:30:28;;;;;;;23.50;4.97;;;12.70;99.90;;;;;;4984351;28;20042;-66
2022/05/21 04:32:54;;;;;;;16.13;4.07;;;12.60;99.90;;;;;;5002807;28;20129;-66
2022/05/21 04:35:21;;;;;;;18.25;3.90;;;12.60;99.90;;;;;;4986359;28;20041;-66
2022/05/21 04:37:47;;;;;;;20.58;4.35;;;12.60;99.90;;;;;;4984474;28;20523;-66
2022/05/21 04:40:18;;;;;;;14.98;3.45;;;12.60;99.90;;;;;;4977318;28;20653;-66
2022/05/21 04:42:44;;;;;;;19.90;3.92;;;12.60;99.90;;;;;;4998484;28;20070;-65
2022/05/21 04:45:11;;;;;;;18.73;4.30;;;12.60;99.90;;;;;;4982162;28;20488;-66
2022/05/21 04:47:38;;;;;;;22.45;4.10;;;12.60;99.90;;;;;;4990487;28;20048;-66
2022/05/21 04:50:08;;;;;;;17.15;3.95;;;12.70;99.90;;;;;;4979966;28;20093;-67
2022/05/21 04:52:36;;;;;;;17.17;3.10;;;12.70;99.90;;;;;;4983821;28;20077;-65
2022/05/21 04:55:08;;;;;;;18.10;3.55;;;12.70;99.90;;;;;;4986741;28;20346;-66
2022/05/21 04:57:33;;;;;;;17.85;3.92;;;12.70;99.90;;;;;;4991157;28;20042;-66
2022/05/21 04:59:59;;;;;;;15.77;3.78;;;12.70;99.90;;;;;;4983091;28;20111;-65
2022/05/21 05:02:25;;;;;;;16.35;3.40;;;12.70;99.90;;;;;;4985240;28;20753;-65
2022/05/21 05:04:50;;;;;;;15.65;2.88;;;12.70;99.90;;;;;;4984246;28;20504;-65
2022/05/21 05:07:19;;;;;;;15.70;4.03;;;12.80;99.90;;;;;;4978619;28;20070;-66
2022/05/21 05:09:46;;;;;;;18.08;3.20;;;12.80;99.90;;;;;;4986113;28;20081;-67
2022/05/21 05:12:11;;;;;;;13.45;3.08;;;12.80;99.90;;;;;;4986911;28;20315;-66
2022/05/21 05:14:38;;;;;;;13.70;3.05;;;12.90;99.90;;;;;;4971892;28;20517;-66
2022/05/21 05:17:06;;;;;;;16.65;2.83;;;12.90;99.90;;;;;;4970146;28;20289;-66
2022/05/21 05:19:34;;;;;;;20.35;3.33;;;12.90;99.90;;;;;;4983696;28;20042;-65
2022/05/21 05:22:00;;;;;;;16.05;3.22;;;13.00;99.90;;;;;;4978853;28;20442;-66
2022/05/21 05:24:26;;;;;;;15.73;3.28;;;13.00;99.90;;;;;;4990864;28;20050;-66
2022/05/21 05:26:51;;;;;;;19.85;3.03;;;13.00;99.90;;;;;;4986114;28;20499;-65
2022/05/21 05:29:17;;;;;;;19.00;3.78;;;13.10;99.90;;;;;;4980059;28;20038;-67
2022/05/21 05:31:43;;;;;;;20.27;3.28;;;13.20;99.90;;;;;;5014663;28;20049;-66
2022/05/21 05:34:08;;;;;;;15.85;3.08;;;13.30;99.90;;;;;;4979843;28;20038;-66
2022/05/21 05:36:34;;;;;;;13.48;3.20;;;13.30;99.90;;;;;;4978501;28;20056;-66
2022/05/21 05:39:01;;;;;;;15.18;2.90;;;13.30;99.90;;;;;;4973637;28;20050;-66
2022/05/21 05:41:27;;;;;;;18.67;3.58;;;13.30;99.90;;;;;;4982730;28;20086;-66
2022/05/21 05:43:54;;;;;;;16.88;3.65;;;13.30;99.90;;;;;;4977314;28;20054;-66
2022/05/21 05:46:21;;;;;;;16.92;3.33;;;13.40;99.90;;;;;;5008597;28;20484;-65
2022/05/21 05:48:46;;;;;;;14.70;3.95;;;13.50;99.90;;;;;;4975964;28;20045;-66
2022/05/21 05:51:13;;;;;;;14.98;3.47;;;13.50;99.90;;;;;;4976584;28;20057;-66
2022/05/21 05:53:38;;;;;;;14.40;2.70;;;13.60;99.90;;;;;;4980881;28;20042;-65
2022/05/21 05:56:08;;;;;;;15.77;2.90;;;13.80;99.90;;;;;;4981987;28;20054;-66
2022/05/21 06:01:20;;;;;;;12.85;2.78;;;13.90;99.90;;;;;;4984464;28;20086;-65
2022/05/21 06:03:46;;;;;;;31.50;5.15;;;14.00;99.90;;;;;;4986517;28;20422;-65
2022/05/21 06:06:11;;;;;;;16.92;3.30;;;14.00;99.90;;;;;;4988079;28;20042;-66
2022/05/21 06:08:37;;;;;;;20.98;3.45;;;14.00;99.90;;;;;;4977856;28;20034;-66
2022/05/21 06:11:03;;;;;;;21.17;3.63;;;14.00;99.90;;;;;;4986222;28;20039;-66
2022/05/21 06:13:28;;;;;;;17.13;3.05;;;13.90;99.90;;;;;;4982934;28;20100;-65
2022/05/21 06:15:54;;;;;;;16.15;3.03;;;14.00;99.90;;;;;;4982686;28;20039;-65
2022/05/21 06:18:20;;;;;;;12.27;3.25;;;14.20;99.90;;;;;;4978383;28;20053;-67
2022/05/21 06:20:48;;;;;;;14.50;3.13;;;14.40;99.90;;;;;;4985486;28;20074;-67
2022/05/21 06:23:15;;;;;;;17.70;3.30;;;14.50;99.90;;;;;;4970090;28;20138;-67
2022/05/21 06:25:41;;;;;;;16.63;3.13;;;14.50;99.90;;;;;;5004921;28;20411;-68
2022/05/21 06:28:07;;;;;;;16.23;2.95;;;14.50;99.90;;;;;;4980898;28;20042;-68
2022/05/21 06:30:35;;;;;;;18.20;3.33;;;14.40;99.90;;;;;;5006880;28;20046;-66
2022/05/21 06:33:19;;;;;;;13.45;2.75;;;14.60;99.90;;;;;;4984543;28;20057;-66
2022/05/21 06:35:50;;;;;;;14.43;3.17;;;14.90;99.90;;;;;;4985621;28;20104;-67
2022/05/21 06:38:16;;;;;;;22.63;3.37;;;14.90;99.90;;;;;;4979544;28;20053;-66
2022/05/21 06:40:42;;;;;;;17.67;3.00;;;14.80;99.90;;;;;;5008153;28;20299;-66
2022/05/21 06:43:08;;;;;;;13.85;2.40;;;14.80;99.90;;;;;;4976318;28;20558;-66
2022/05/21 06:45:35;;;;;;;18.77;2.95;;;15.00;99.90;;;;;;4976440;28;20085;-66
2022/05/21 06:48:07;;;;;;;14.68;2.80;;;14.80;99.90;;;;;;4986075;28;20038;-67
2022/05/21 06:50:34;;;;;;;19.77;2.85;;;14.90;99.90;;;;;;4983753;28;20038;-68
2022/05/21 06:53:00;;;;;;;11.25;2.55;;;14.90;99.90;;;;;;4984498;28;20411;-67
2022/05/21 06:55:26;;;;;;;14.30;3.28;;;15.00;99.90;;;;;;4989131;28;20050;-67
2022/05/21 06:57:52;;;;;;;11.88;3.13;;;15.10;99.90;;;;;;4966338;28;20050;-68
2022/05/21 07:00:21;;;;;;;17.17;3.38;;;15.10;99.90;;;;;;4981671;28;20062;-68
2022/05/21 07:02:48;;;;;;;13.38;2.92;;;15.20;99.90;;;;;;5005177;28;20427;-68
2022/05/21 07:08:02;;;;;;;13.80;3.28;;;15.30;99.90;;;;;;4979030;28;20499;-67
2022/05/21 07:10:29;;;;;;;13.15;3.33;;;15.40;99.90;;;;;;4977146;28;20081;-66
2022/05/21 07:12:55;;;;;;;14.10;2.90;;;15.30;99.90;;;;;;4973671;28;20065;-67
2022/05/21 07:15:21;;;;;;;18.27;2.47;;;15.40;99.90;;;;;;4982677;28;20046;-67
2022/05/21 07:17:48;;;;;;;18.00;3.10;;;15.50;99.90;;;;;;5008735;28;20391;-67
2022/05/21 07:20:19;;;;;;;13.55;2.88;;;15.80;99.90;;;;;;4985591;28;20038;-67
2022/05/21 07:22:48;;;;;;;14.52;2.67;;;16.10;99.90;;;;;;4983022;28;20057;-66
2022/05/21 07:25:18;;;;;;;18.90;3.60;;;16.00;99.90;;;;;;4984055;28;20046;-67
2022/05/21 07:27:44;;;;;;;15.85;3.13;;;16.00;99.90;;;;;;5002470;28;20050;-67
2022/05/21 07:30:10;;;;;;;13.27;2.70;;;16.60;99.90;;;;;;4985774;28;20053;-67
2022/05/21 07:32:36;;;;;;;16.85;2.50;;;17.10;99.90;;;;;;4985751;28;20050;-66
2022/05/21 07:35:09;;;;;;;17.52;2.85;;;17.30;99.90;;;;;;4984055;28;20039;-66
2022/05/21 07:37:35;;;;;;;14.75;2.80;;;17.10;99.90;;;;;;4961831;28;20536;-67
2022/05/21 07:40:02;;;;;;;14.30;2.90;;;17.30;99.90;;;;;;4974100;28;20058;-67
2022/05/21 07:42:28;;;;;;;18.55;3.28;;;17.50;99.90;;;;;;5007978;28;20381;-68
2022/05/21 07:44:53;;;;;;;13.32;2.70;;;17.70;99.90;;;;;;4979980;28;20081;-66
2022/05/21 07:47:24;;;;;;;17.77;2.88;;;17.90;99.90;;;;;;4986858;28;20130;-66
2022/05/21 07:49:56;;;;;;;16.80;2.80;;;18.20;99.90;;;;;;4970856;28;20495;-67
2022/05/21 07:52:27;;;;;;;12.07;3.03;;;18.30;99.90;;;;;;4985022;28;20034;-66
2022/05/21 07:54:54;;;;;;;20.10;4.35;;;18.10;99.90;;;;;;4956997;28;20557;-66
2022/05/21 07:57:19;;;;;;;15.60;2.53;;;17.80;99.90;;;;;;4980150;28;21078;-68
2022/05/21 07:59:48;;;;;;;13.73;2.38;;;17.60;99.90;;;;;;5008466;28;20615;-66
2022/05/21 08:02:16;;;;;;;20.67;2.85;;;17.80;99.90;;;;;;5011778;28;20459;-67
2022/05/21 08:04:43;;;;;;;14.77;2.83;;;17.90;99.90;;;;;;4983289;28;20475;-66
2022/05/21 08:07:08;;;;;;;18.08;2.80;;;17.70;99.90;;;;;;4981661;28;20037;-67
2022/05/21 08:09:35;;;;;;;11.27;2.83;;;17.40;99.90;;;;;;4975526;28;20047;-66
2022/05/21 08:12:02;;;;;;;15.65;2.58;;;17.30;99.90;;;;;;4985008;28;20046;-66
2022/05/21 08:14:28;;;;;;;16.33;2.90;;;17.50;99.90;;;;;;4979592;28;20050;-67
2022/05/21 08:16:54;;;;;;;15.70;3.00;;;17.90;99.90;;;;;;4978896;28;20043;-67
2022/05/21 08:19:19;;;;;;;14.02;2.70;;;18.00;99.90;;;;;;4962811;28;20502;-67
2022/05/21 08:21:45;;;;;;;15.15;3.00;;;17.90;99.90;;;;;;5007289;28;20046;-67
2022/05/21 08:27:02;;;;;;;12.88;3.28;;;18.30;99.90;;;;;;5015346;28;20066;-66
2022/05/21 08:29:36;;;;;;;10.43;1.90;;;18.30;99.90;;;;;;5009685;28;20804;-67
2022/05/21 08:32:03;;;;;;;15.30;2.90;;;18.30;99.90;;;;;;4997376;28;20229;-66
2022/05/21 08:34:29;;;;;;;11.75;2.58;;;18.40;99.90;;;;;;4966433;28;21547;-67
2022/05/21 08:36:56;;;;;;;14.52;2.75;;;18.40;99.90;;;;;;4969639;28;20476;-67
2022/05/21 08:39:22;;;;;;;12.73;2.85;;;18.40;99.90;;;;;;5003294;28;20423;-67
2022/05/21 08:42:04;;;;;;;14.18;2.60;;;18.40;99.90;;;;;;4971362;28;20061;-69
2022/05/21 08:44:39;;;;;;;10.85;2.03;;;18.60;99.90;;;;;;4977036;28;20145;-67
2022/05/21 08:47:14;;;;;;;12.82;2.67;;;18.50;99.90;;;;;;4974448;28;20136;-67
2022/05/21 08:49:54;;;;;;;12.52;3.10;;;18.40;99.90;;;;;;4977340;28;20125;-66
2022/05/21 08:52:29;;;;;;;10.65;2.10;;;18.50;99.90;;;;;;4976013;28;20043;-68
2022/05/21 08:54:58;;;;;;;14.20;2.88;;;18.80;99.90;;;;;;4974592;28;20046;-67
2022/05/21 08:57:39;;;;;;;9.60;2.22;;;18.80;99.90;;;;;;4975201;28;20133;-67
2022/05/21 09:00:33;;;;;;;10.02;2.03;;;18.80;99.90;;;;;;4975512;28;20459;-66
2022/05/21 09:03:00;;;;;;;10.38;2.63;;;18.80;99.90;;;;;;4973975;28;20059;-66
2022/05/21 09:05:26;;;;;;;13.45;2.65;;;19.00;99.90;;;;;;4975823;28;20050;-66
2022/05/21 09:08:35;;;;;;;12.35;2.05;;;19.20;99.90;;;;;;5009105;28;20060;-66
2022/05/21 09:11:15;;;;;;;12.07;2.35;;;19.00;99.90;;;;;;4981950;28;20117;-66
2022/05/21 09:14:06;;;;;;;11.88;2.17;;;18.80;99.90;;;;;;5011188;28;20529;-67
2022/05/21 09:16:57;;;;;;;;;;;18.90;99.90;;;;;;4979170;28;20105;-66
2022/05/21 09:19:23;;;;;;;14.00;3.08;;;18.90;99.90;;;;;;4986760;28;20024;-66
2022/05/21 09:21:55;;;;;;;12.80;2.97;;;18.80;99.90;;;;;;4981510;28;20056;-67
2022/05/21 09:24:47;;;;;;;10.55;2.70;;;18.90;99.90;;;;;;4982349;28;20278;-66
2022/05/21 09:27:42;;;;;;;23.08;3.30;;;19.00;99.90;;;;;;4995211;28;20051;-67
2022/05/21 09:30:20;;;;;;;10.30;2.03;;;19.00;99.90;;;;;;5009709;28;20047;-66
2022/05/21 09:32:52;;;;;;;17.60;3.00;;;18.90;99.90;;;;;;4981583;28;20038;-66
2022/05/21 09:35:23;;;;;;;12.55;2.50;;;18.80;99.90;;;;;;4993285;28;20173;-67
2022/05/21 09:37:49;;;;;;;13.68;2.47;;;18.90;99.90;;;;;;4981310;28;20060;-67
2022/05/21 09:40:23;;;;;;;13.45;2.58;;;18.90;99.90;;;;;;4983386;28;20440;-66
2022/05/21 09:45:36;;;;;;;9.95;2.03;;;19.70;99.90;;;;;;4979480;28;20049;-66
2022/05/21 09:48:05;;;;;;;11.32;2.40;;;19.80;99.90;;;;;;4984900;28;20113;-66
2022/05/21 09:50:46;;;;;;;10.90;2.10;;;19.40;99.90;;;;;;4989999;28;20137;-66
2022/05/21 09:53:39;;;;;;;13.60;2.20;;;19.10;99.90;;;;;;4981565;28;20038;-67
2022/05/21 09:56:23;;;;;;;10.52;2.08;;;19.00;99.90;;;;;;4981991;28;20491;-67
2022/05/21 09:58:52;;;;;;;11.25;2.28;;;18.80;99.90;;;;;;4985837;28;20129;-66
2022/05/21 10:01:38;;;;;;;10.93;1.70;;;18.60;99.90;;;;;;4981341;28;20514;-66
2022/05/21 10:04:30;;;;;;;10.98;1.95;;;18.50;99.90;;;;;;4981783;28;20051;-66
2022/05/21 10:07:09;;;;;;;10.18;1.98;;;18.20;99.90;;;;;;4999412;28;20057;-66
2022/05/21 10:12:38;;;;;;;10.90;2.28;;;17.90;99.90;;;;;;4979811;28;20176;-67
2022/05/21 10:15:19;;;;;;;14.20;2.83;;;17.80;99.90;;;;;;5007754;28;20071;-67
2022/05/21 10:17:52;;;;;;;11.63;2.30;;;18.00;99.90;;;;;;4984780;28;20104;-66
2022/05/21 10:20:34;;;;;;;11.35;2.58;;;18.50;99.90;;;;;;4979284;28;20046;-66
2022/05/21 10:23:26;;;;;;;16.17;2.45;;;18.80;99.90;;;;;;4981503;28;20064;-66
2022/05/21 10:26:06;;;;;;;13.52;2.05;;;18.80;99.90;;;;;;4980202;28;20045;-66
2022/05/21 10:28:58;;;;;;;10.50;2.00;;;19.10;99.90;;;;;;5008391;28;20521;-66
2022/05/21 10:31:51;;;;;;;12.50;2.30;;;19.40;99.90;;;;;;4977291;28;20381;-67
2022/05/21 10:34:36;;;;;;;10.35;2.42;;;19.90;99.90;;;;;;5011348;28;20518;-66
2022/05/21 10:37:22;;;;;;;12.55;2.72;;;19.80;99.90;;;;;;4981728;28;20054;-67
2022/05/21 10:40:07;;;;;;;10.32;2.00;;;19.50;99.90;;;;;;4981554;28;20050;-67
2022/05/21 10:42:51;;;;;;;9.75;2.22;;;19.30;99.90;;;;;;4983986;28;20475;-66
2022/05/21 10:45:33;;;;;;;12.65;2.13;;;19.60;99.90;;;;;;4980894;28;20050;-66
2022/05/21 10:48:16;;;;;;;9.57;1.50;;;19.80;99.90;;;;;;5015187;28;20128;-66
2022/05/21 10:51:06;;;;;;;10.23;1.77;;;19.70;99.90;;;;;;4983545;28;20074;-66
2022/05/21 10:53:38;;;;;;;9.97;2.13;;;20.10;99.90;;;;;;4979305;28;20034;-66
2022/05/21 10:56:28;;;;;;;10.07;1.85;;;20.60;99.90;;;;;;4977923;28;20058;-67
2022/05/21 10:58:57;;;;;;;9.65;1.92;;;21.10;99.90;;;;;;4979925;28;20056;-67
2022/05/21 11:02:00;;;;;;;8.38;2.13;;;21.40;99.90;;;;;;4982874;28;20053;-67
2022/05/21 11:04:45;;;;;;;13.93;2.97;;;21.10;99.90;;;;;;5006598;28;20510;-67
2022/05/21 11:07:34;;;;;;;8.40;2.17;;;20.80;99.90;;;;;;4979385;28;20057;-65
2022/05/21 11:10:10;;;;;;;10.80;2.10;;;20.70;99.90;;;;;;4976032;28;20048;-65
2022/05/21 11:12:42;;;;;;;10.57;2.45;;;20.10;99.90;;;;;;4977159;28;20147;-65
2022/05/21 11:15:16;;;;;;;19.10;2.75;;;19.70;99.90;;;;;;4974651;28;20390;-66
2022/05/21 11:17:51;;;;;;;14.88;2.40;;;19.50;99.90;;;;;;4992050;28;20108;-66
2022/05/21 11:20:26;;;;;;;12.63;2.53;;;19.10;99.90;;;;;;4971185;28;20141;-65
2022/05/21 11:23:10;;;;;;;10.85;2.30;;;18.80;99.90;;;;;;4973518;28;20050;-65
2022/05/21 11:26:10;;;;;;;14.13;2.55;;;18.50;99.90;;;;;;4975462;28;20081;-65
2022/05/21 11:28:59;;;;;;;9.77;1.70;;;18.40;99.90;;;;;;4970446;28;20508;-65
2022/05/21 11:37:39;;;;;;;8.52;1.98;;;19.30;99.90;;;;;;4972257;28;20058;-65
2022/05/21 11:40:08;;;;;;;11.70;1.98;;;19.60;99.90;;;;;;4969104;28;20420;-66
2022/05/21 11:42:34;;;;;;;11.95;2.42;;;19.70;99.90;;;;;;5001577;28;20050;-67
2022/05/21 11:45:09;;;;;;;14.05;2.20;;;19.50;99.90;;;;;;4970596;28;20185;-65
2022/05/21 11:47:49;;;;;;;10.38;2.22;;;19.30;99.90;;;;;;4964231;28;20532;-65
2022/05/21 11:50:24;;;;;;;10.82;2.60;;;18.90;99.90;;;;;;4974310;28;20050;-65
2022/05/21 11:52:58;;;;;;;18.90;2.13;;;18.90;99.90;;;;;;5004237;28;20395;-66
2022/05/21 11:55:30;;;;;;;13.55;2.15;;;18.90;99.90;;;;;;4974668;28;20129;-65
2022/05/21 11:58:06;;;;;;;12.00;2.90;;;18.80;99.90;;;;;;4977286;28;20050;-65
2022/05/21 12:00:32;;;;;;;15.52;2.88;;;18.80;99.90;;;;;;4978164;28;20403;-65
2022/05/21 12:02:58;;;;;;;12.60;2.33;;;19.10;99.90;;;;;;4978038;28;20051;-64
2022/05/21 12:05:37;;;;;;;8.98;1.85;;;19.70;99.90;;;;;;4972511;28;20587;-64
2022/05/21 12:08:18;;;;;;;15.35;2.63;;;20.20;99.90;;;;;;4975109;28;20493;-66
2022/05/21 12:11:21;;;;;;;11.52;2.13;;;20.50;99.90;;;;;;5000397;28;20065;-65
2022/05/21 12:14:04;;;;;;;9.93;2.20;;;20.80;99.90;;;;;;4973419;28;20042;-65
2022/05/21 12:16:30;;;;;;;11.23;2.47;;;20.90;99.90;;;;;;4977099;28;20085;-66
2022/05/21 12:18:58;;;;;;;11.93;2.60;;;20.50;99.90;;;;;;4980915;28;20058;-66
2022/05/21 12:21:32;;;;;;;10.82;2.15;;;20.10;99.90;;;;;;4982853;28;20466;-65
2022/05/21 12:24:05;;;;;;;11.77;2.38;;;19.60;99.90;;;;;;4982016;28;20510;-66
2022/05/21 12:26:40;;;;;;;14.70;2.03;;;19.40;99.90;;;;;;4966756;28;20068;-65
2022/05/21 12:29:27;;;;;;;9.07;1.90;;;19.50;99.90;;;;;;4977289;28;20058;-65
2022/05/21 12:31:56;;;;;;;8.40;2.30;;;19.90;99.90;;;;;;4973607;28;20042;-66
2022/05/21 12:34:46;;;;;;;10.68;2.28;;;20.10;99.90;;;;;;4979852;28;20061;-65
2022/05/21 12:37:27;;;;;;;9.63;2.17;;;20.30;99.90;;;;;;4971185;28;20054;-67
2022/05/21 12:40:05;;;;;;;9.93;2.13;;;20.10;99.90;;;;;;4959201;28;20050;-65
2022/05/21 12:42:57;;;;;;;10.13;2.38;;;19.80;99.90;;;;;;4977625;28;20113;-66
2022/05/21 12:45:43;;;;;;;10.32;2.20;;;19.50;99.90;;;;;;5003078;28;20086;-66
2022/05/21 12:48:40;;;;;;;13.98;2.22;;;19.20;99.90;;;;;;4971746;28;20042;-65
2022/05/21 12:51:10;;;;;;;18.02;2.47;;;19.10;99.90;;;;;;4980830;28;20054;-66
2022/05/21 12:53:45;;;;;;;10.75;1.98;;;19.20;99.90;;;;;;4983329;28;20455;-65
2022/05/21 12:56:32;;;;;;;12.80;2.20;;;19.30;99.90;;;;;;4974282;28;20049;-67
2022/05/21 12:59:15;;;;;;;10.00;1.45;;;19.30;99.90;;;;;;4975774;28;20061;-66
2022/05/21 13:01:55;;;;;;;7.97;2.08;;;19.10;99.90;;;;;;4977109;28;20113;-65
2022/05/21 13:04:38;;;;;;;11.68;2.30;;;18.80;99.90;;;;;;4977457;28;20112;-65
2022/05/21 13:07:24;;;;;;;9.80;1.77;;;18.70;99.90;;;;;;4977366;28;20046;-65
2022/05/21 13:09:57;;;;;;;7.35;1.85;;;18.40;99.90;;;;;;4979080;28;20066;-67
2022/05/21 13:12:25;;;;;;;12.93;2.95;;;18.10;99.90;;;;;;4975481;28;20525;-69
2022/05/21 13:14:52;;;;;;;10.10;1.70;;;18.10;99.90;;;;;;4970789;28;20049;-68
2022/05/21 13:17:40;;;;;;;9.82;1.98;;;18.00;99.90;;;;;;4968683;28;20043;-68
2022/05/21 13:20:23;;;;;;;9.13;1.73;;;18.00;99.90;;;;;;4975990;28;20054;-68
2022/05/21 13:23:18;;;;;;;11.18;2.03;;;18.10;99.90;;;;;;4983752;28;20038;-68
2022/05/21 13:25:53;;;;;;;12.68;2.60;;;18.20;99.90;;;;;;4962784;28;20438;-68
2022/05/21 13:28:21;;;;;;;9.43;1.63;;;18.30;99.90;;;;;;4984674;28;20042;-68
2022/05/21 13:30:49;;;;;;;10.68;2.92;;;18.20;99.90;;;;;;5000226;28;20049;-70